Time;durP1;ratioP1;P1;durP2;ratioP2;P2;SDS_P1;SDS_P2;PMS_P1;PMS_P2;Temp;Humidity;BMP_temperature;BMP_pressure;BME280_temperature;BME280_humidity;BME280_pressure;Samples;Min_cycle;Max_cycle;Signal;HPM_P1;HPM_P2
2021/11/11 00:01:36;;;;;;;10.23;2.73;;;;;;;;;;5091797;28;20031;-65
2021/11/11 00:04:09;;;;;;;4.55;2.08;;;;;;;;;;5093683;28;20587;-65
2021/11/11 00:06:38;;;;;;;6.37;2.53;;;;;;;;;;5073190;28;20012;-65
2021/11/11 00:09:07;;;;;;;11.40;4.27;;;;;;;;;;5072719;28;20048;-67
2021/11/11 00:11:41;;;;;;;6.07;2.50;;;;;;;;;;5073688;28;20024;-65
2021/11/11 00:14:13;;;;;;;6.43;3.08;;;;;;;;;;5084072;28;20021;-66
2021/11/11 00:16:41;;;;;;;8.03;3.23;;;;;;;;;;5085445;28;20028;-65
2021/11/11 00:19:08;;;;;;;7.17;2.80;;;;;;;;;;5088394;28;20077;-64
2021/11/11 00:21:35;;;;;;;5.57;2.17;;;;;;;;;;5088300;28;20028;-65
2021/11/11 00:24:01;;;;;;;6.53;2.63;;;;;;;;;;5092864;28;20430;-66
2021/11/11 00:26:29;;;;;;;8.87;3.80;;;;;;;;;;5088551;28;20032;-66
2021/11/11 00:28:56;;;;;;;13.07;4.50;;;;;;;;;;5073106;28;20475;-66
2021/11/11 00:31:26;;;;;;;27.47;5.30;;;;;;;;;;5073164;28;20048;-66
2021/11/11 00:33:53;;;;;;;13.63;4.47;;;;;;;;;;5073029;28;20024;-65
2021/11/11 00:36:20;;;;;;;9.97;4.27;;;;;;;;;;5070039;28;20036;-64
2021/11/11 00:38:47;;;;;;;10.90;4.20;;;;;;;;;;5087759;28;20096;-64
2021/11/11 00:41:14;;;;;;;13.20;4.33;;;;;;;;;;5087879;28;20032;-65
2021/11/11 00:43:41;;;;;;;11.40;3.80;;;;;;;;;;5087955;28;20027;-65
2021/11/11 00:46:08;;;;;;;4.80;2.50;;;;;;;;;;5091819;28;20045;-64
2021/11/11 00:48:35;;;;;;;9.93;4.03;;;;;;;;;;5092120;28;20043;-65
2021/11/11 00:51:02;;;;;;;13.10;4.83;;;;;;;;;;5092729;28;20035;-65
2021/11/11 00:53:29;;;;;;;21.53;4.90;;;;;;;;;;5092768;28;20030;-66
2021/11/11 00:55:56;;;;;;;10.83;4.23;;;;;;;;;;5092696;28;20517;-65
2021/11/11 00:58:22;;;;;;;15.10;4.60;;;;;;;;;;5088769;28;20024;-66
2021/11/11 01:00:49;;;;;;;9.60;3.17;;;;;;;;;;5080359;28;20059;-63
2021/11/11 01:03:19;;;;;;;7.67;3.73;;;;;;;;;;5067449;28;20067;-64
2021/11/11 01:05:46;;;;;;;6.07;2.97;;;;;;;;;;5066461;28;20103;-64
2021/11/11 01:08:12;;;;;;;9.07;3.37;;;;;;;;;;5070828;28;20467;-65
2021/11/11 01:10:39;;;;;;;10.93;3.37;;;;;;;;;;5072217;28;20028;-65
2021/11/11 01:13:06;;;;;;;14.83;4.33;;;;;;;;;;5072059;28;20060;-64
2021/11/11 01:15:33;;;;;;;7.47;3.40;;;;;;;;;;5072307;28;20028;-65
2021/11/11 01:18:01;;;;;;;19.87;3.93;;;;;;;;;;5072669;28;20016;-66
2021/11/11 01:20:28;;;;;;;9.43;3.60;;;;;;;;;;5068861;28;20048;-66
2021/11/11 01:22:56;;;;;;;10.90;4.17;;;;;;;;;;5067068;28;20035;-64
2021/11/11 01:25:23;;;;;;;9.67;4.63;;;;;;;;;;5073931;28;20516;-65
2021/11/11 01:27:50;;;;;;;7.83;3.83;;;;;;;;;;5086747;28;20383;-65
2021/11/11 01:30:17;;;;;;;7.77;3.47;;;;;;;;;;5090136;28;20058;-64
2021/11/11 01:32:44;;;;;;;8.30;4.10;;;;;;;;;;5092241;28;20382;-64
2021/11/11 01:35:13;;;;;;;7.17;3.40;;;;;;;;;;5086753;28;20375;-65
2021/11/11 01:37:41;;;;;;;10.20;3.90;;;;;;;;;;5086110;28;20089;-64
2021/11/11 01:40:08;;;;;;;6.27;3.43;;;;;;;;;;5092117;28;20073;-64
2021/11/11 01:42:43;;;;;;;13.97;3.57;;;;;;;;;;5089025;28;20028;-65
2021/11/11 01:45:09;;;;;;;6.82;3.17;;;;;;;;;;5085678;28;20024;-62
2021/11/11 01:47:36;;;;;;;11.00;3.17;;;;;;;;;;5076214;28;20116;-64
2021/11/11 01:50:04;;;;;;;7.13;2.93;;;;;;;;;;5066968;28;20032;-64
2021/11/11 01:52:31;;;;;;;9.73;4.20;;;;;;;;;;5069530;28;20024;-64
2021/11/11 01:54:58;;;;;;;15.10;4.53;;;;;;;;;;5071906;28;20534;-64
2021/11/11 01:57:25;;;;;;;11.30;4.23;;;;;;;;;;5075317;28;20090;-66
2021/11/11 01:59:52;;;;;;;8.57;5.33;;;;;;;;;;5071682;28;20495;-63
2021/11/11 02:02:29;;;;;;;9.30;4.60;;;;;;;;;;5071904;28;20028;-62
2021/11/11 02:04:56;;;;;;;12.27;4.80;;;;;;;;;;5068684;28;20028;-61
2021/11/11 02:07:23;;;;;;;10.07;5.47;;;;;;;;;;5066700;28;20023;-64
2021/11/11 02:09:50;;;;;;;10.47;4.97;;;;;;;;;;5066817;28;20038;-62
2021/11/11 02:12:17;;;;;;;7.07;3.47;;;;;;;;;;5070897;28;20036;-66
2021/11/11 02:14:43;;;;;;;9.80;4.07;;;;;;;;;;5088287;28;20085;-65
2021/11/11 02:17:10;;;;;;;14.80;5.37;;;;;;;;;;5093657;28;20486;-64
2021/11/11 02:19:37;;;;;;;21.00;5.30;;;;;;;;;;5095384;28;20036;-64
2021/11/11 02:22:04;;;;;;;11.57;5.00;;;;;;;;;;5087473;28;20100;-63
2021/11/11 02:24:33;;;;;;;27.90;5.97;;;;;;;;;;5075409;28;20495;-63
2021/11/11 02:27:00;;;;;;;10.67;3.83;;;;;;;;;;5072673;28;20467;-65
2021/11/11 02:29:28;;;;;;;9.43;3.27;;;;;;;;;;5084923;28;20040;-65
2021/11/11 02:31:55;;;;;;;15.97;3.33;;;;;;;;;;5090403;28;20028;-64
2021/11/11 02:34:23;;;;;;;9.67;3.00;;;;;;;;;;5089006;28;20035;-64
2021/11/11 02:37:00;;;;;;;9.30;3.30;;;;;;;;;;5092117;28;20053;-64
2021/11/11 02:39:34;;;;;;;14.03;2.90;;;;;;;;;;5094506;28;20020;-64
2021/11/11 02:42:01;;;;;;;11.23;3.50;;;;;;;;;;5095268;28;20023;-64
2021/11/11 02:44:28;;;;;;;7.17;3.43;;;;;;;;;;5079739;28;20032;-64
2021/11/11 02:46:57;;;;;;;10.83;3.60;;;;;;;;;;5079600;28;20013;-63
2021/11/11 02:49:24;;;;;;;11.37;3.20;;;;;;;;;;5092027;28;20051;-64
2021/11/11 02:51:52;;;;;;;9.77;2.63;;;;;;;;;;5090147;28;20103;-63
2021/11/11 02:54:19;;;;;;;10.57;2.90;;;;;;;;;;5087162;28;20043;-63
2021/11/11 02:56:46;;;;;;;8.77;3.20;;;;;;;;;;5089725;28;20028;-64
2021/11/11 02:59:12;;;;;;;8.33;3.50;;;;;;;;;;5078550;28;20041;-63
2021/11/11 03:01:39;;;;;;;7.67;2.90;;;;;;;;;;5075938;28;20536;-63
2021/11/11 03:04:06;;;;;;;10.90;3.27;;;;;;;;;;5074771;28;20016;-63
2021/11/11 03:06:32;;;;;;;13.33;3.87;;;;;;;;;;5074545;28;20032;-63
2021/11/11 03:09:00;;;;;;;7.97;3.10;;;;;;;;;;5074609;28;20029;-65
2021/11/11 03:11:30;;;;;;;12.97;3.20;;;;;;;;;;5073444;28;20032;-63
2021/11/11 03:13:57;;;;;;;10.80;3.17;;;;;;;;;;5078249;28;20041;-64
2021/11/11 03:16:25;;;;;;;11.00;3.50;;;;;;;;;;5069394;28;20463;-63
2021/11/11 03:18:52;;;;;;;7.83;3.30;;;;;;;;;;5069477;28;20096;-63
2021/11/11 03:21:18;;;;;;;9.47;3.40;;;;;;;;;;5071020;28;20025;-63
2021/11/11 03:23:45;;;;;;;7.17;3.97;;;;;;;;;;5080815;28;20115;-62
2021/11/11 03:26:12;;;;;;;7.33;3.30;;;;;;;;;;5094534;28;20382;-64
2021/11/11 03:28:39;;;;;;;8.70;3.43;;;;;;;;;;5084246;28;20387;-63
2021/11/11 03:31:06;;;;;;;7.80;3.40;;;;;;;;;;5073929;28;20025;-64
2021/11/11 03:33:33;;;;;;;6.97;3.73;;;;;;;;;;5072075;28;20026;-63
2021/11/11 03:35:59;;;;;;;7.90;3.77;;;;;;;;;;5069008;28;20030;-63
2021/11/11 03:38:26;;;;;;;9.27;3.60;;;;;;;;;;5088348;28;20028;-62
2021/11/11 03:40:53;;;;;;;7.30;2.80;;;;;;;;;;5089254;28;20101;-62
2021/11/11 03:43:23;;;;;;;14.10;3.83;;;;;;;;;;5083461;28;20472;-64
2021/11/11 03:45:50;;;;;;;8.50;3.63;;;;;;;;;;5073963;28;20051;-62
2021/11/11 03:48:17;;;;;;;5.97;2.97;;;;;;;;;;5089620;28;20028;-63
2021/11/11 03:50:44;;;;;;;11.57;3.20;;;;;;;;;;5093368;28;20020;-63
2021/11/11 03:53:11;;;;;;;13.97;3.07;;;;;;;;;;5092101;28;20023;-63
2021/11/11 03:55:38;;;;;;;7.77;3.03;;;;;;;;;;5091564;28;20074;-63
2021/11/11 03:58:06;;;;;;;6.23;2.67;;;;;;;;;;5088005;28;20107;-62
2021/11/11 04:00:33;;;;;;;7.60;3.40;;;;;;;;;;5087890;28;20031;-62
2021/11/11 04:03:00;;;;;;;5.60;2.63;;;;;;;;;;5088102;28;20043;-63
2021/11/11 04:05:26;;;;;;;9.03;3.00;;;;;;;;;;5088892;28;20056;-63
2021/11/11 04:07:53;;;;;;;9.30;2.40;;;;;;;;;;5092453;28;20272;-63
2021/11/11 04:10:20;;;;;;;13.57;3.67;;;;;;;;;;5093069;28;20032;-62
2021/11/11 04:12:47;;;;;;;8.23;2.57;;;;;;;;;;5092925;28;20028;-63
2021/11/11 04:15:14;;;;;;;7.60;2.90;;;;;;;;;;5087987;28;20498;-64
2021/11/11 04:17:41;;;;;;;9.30;3.40;;;;;;;;;;5071448;28;20471;-63
2021/11/11 04:20:09;;;;;;;5.70;2.97;;;;;;;;;;5067467;28;20021;-63
2021/11/11 04:22:36;;;;;;;7.07;4.20;;;;;;;;;;5067874;28;20040;-63
2021/11/11 04:25:04;;;;;;;6.73;3.03;;;;;;;;;;5068742;28;20024;-63
2021/11/11 04:27:40;;;;;;;5.17;2.83;;;;;;;;;;5087655;28;20418;-63
2021/11/11 04:32:34;;;;;;;8.30;3.10;;;;;;;;;;5072407;28;20032;-63
2021/11/11 04:35:01;;;;;;;8.10;3.20;;;;;;;;;;5072119;28;20105;-63
2021/11/11 04:41:08;;;;;;;9.33;3.27;;;;;;;;;;5065180;28;20189;-63
2021/11/11 04:51:25;;;;;;;6.47;2.40;;;;;;;;;;5090689;28;20386;-64
2021/11/11 05:04:47;;;;;;;9.02;4.32;;;;;;;;;;5066593;28;20071;-63
2021/11/11 05:07:14;;;;;;;8.73;4.80;;;;;;;;;;5081604;28;20020;-62
2021/11/11 05:09:41;;;;;;;5.80;3.10;;;;;;;;;;5075426;28;20170;-64
2021/11/11 05:12:12;;;;;;;4.93;2.70;;;;;;;;;;5067737;28;20024;-63
2021/11/11 05:14:39;;;;;;;9.47;3.40;;;;;;;;;;5071253;28;20019;-62
2021/11/11 05:17:06;;;;;;;9.77;3.80;;;;;;;;;;5072126;28;20017;-62
2021/11/11 05:19:33;;;;;;;10.17;3.50;;;;;;;;;;5072069;28;20035;-63
2021/11/11 05:22:00;;;;;;;8.93;3.13;;;;;;;;;;5071966;28;20471;-63
2021/11/11 05:24:27;;;;;;;8.30;2.90;;;;;;;;;;5070721;28;20012;-63
2021/11/11 05:26:54;;;;;;;8.97;2.77;;;;;;;;;;5066565;28;20032;-63
2021/11/11 05:29:22;;;;;;;8.20;3.30;;;;;;;;;;5080027;28;20487;-63
2021/11/11 05:31:50;;;;;;;10.00;2.77;;;;;;;;;;5087099;28;20057;-63
2021/11/11 05:34:17;;;;;;;11.90;3.37;;;;;;;;;;5087649;28;20268;-63
2021/11/11 05:36:44;;;;;;;9.40;3.90;;;;;;;;;;5085723;28;20263;-62
2021/11/11 05:39:11;;;;;;;6.07;3.13;;;;;;;;;;5076566;28;20257;-62
2021/11/11 05:41:39;;;;;;;6.47;3.10;;;;;;;;;;5091830;28;20620;-63
2021/11/11 05:44:10;;;;;;;4.63;2.60;;;;;;;;;;5091756;28;20822;-62
2021/11/11 05:46:37;;;;;;;5.60;3.23;;;;;;;;;;5092832;28;20743;-63
2021/11/11 05:49:04;;;;;;;5.20;2.80;;;;;;;;;;5101643;28;20299;-63
2021/11/11 05:51:32;;;;;;;4.70;2.23;;;;;;;;;;5086532;28;20291;-62
2021/11/11 05:54:00;;;;;;;5.53;2.43;;;;;;;;;;5086711;28;20276;-63
2021/11/11 05:56:27;;;;;;;7.47;2.60;;;;;;;;;;5086767;28;20300;-63
2021/11/11 05:58:54;;;;;;;7.23;3.10;;;;;;;;;;5089699;28;20256;-62
2021/11/11 06:01:22;;;;;;;6.93;3.27;;;;;;;;;;5071366;28;20258;-62
2021/11/11 06:03:49;;;;;;;7.90;3.77;;;;;;;;;;5088307;28;20249;-62
2021/11/11 06:06:16;;;;;;;7.13;3.43;;;;;;;;;;5091930;28;20272;-62
2021/11/11 06:08:42;;;;;;;6.47;2.70;;;;;;;;;;5090171;28;20293;-63
2021/11/11 06:11:09;;;;;;;4.37;2.93;;;;;;;;;;5072520;28;20335;-62
2021/11/11 06:13:36;;;;;;;6.30;2.60;;;;;;;;;;5066627;28;20324;-62
2021/11/11 06:16:04;;;;;;;5.33;3.00;;;;;;;;;;5066605;28;20271;-62
2021/11/11 06:18:35;;;;;;;7.93;2.77;;;;;;;;;;5066299;28;20841;-63
2021/11/11 06:21:02;;;;;;;8.13;3.07;;;;;;;;;;5082414;28;20326;-63
2021/11/11 06:23:31;;;;;;;6.40;2.90;;;;;;;;;;5091526;28;20247;-62
2021/11/11 06:25:58;;;;;;;23.87;11.93;;;;;;;;;;5091045;28;20288;-62
2021/11/11 06:28:25;;;;;;;43.47;19.77;;;;;;;;;;5091747;28;20280;-62
2021/11/11 06:30:52;;;;;;;29.30;14.63;;;;;;;;;;5081721;28;20273;-63
2021/11/11 06:33:19;;;;;;;29.73;12.00;;;;;;;;;;5066499;28;20684;-63
2021/11/11 06:35:46;;;;;;;12.27;6.67;;;;;;;;;;5065924;28;20318;-62
2021/11/11 06:38:13;;;;;;;11.43;5.07;;;;;;;;;;5066078;28;20246;-62
2021/11/11 06:40:40;;;;;;;7.27;4.10;;;;;;;;;;5073511;28;20296;-62
2021/11/11 06:43:07;;;;;;;13.67;6.87;;;;;;;;;;5091166;28;20257;-62
2021/11/11 06:45:44;;;;;;;14.57;5.17;;;;;;;;;;5091474;28;20261;-62
2021/11/11 06:48:12;;;;;;;7.67;3.70;;;;;;;;;;5106547;28;20256;-63
2021/11/11 06:50:43;;;;;;;9.70;4.83;;;;;;;;;;5103811;28;20257;-62
2021/11/11 06:53:11;;;;;;;10.50;5.30;;;;;;;;;;5090690;28;20302;-62
2021/11/11 06:55:42;;;;;;;7.67;4.17;;;;;;;;;;5085831;28;20313;-62
2021/11/11 06:58:13;;;;;;;6.47;3.57;;;;;;;;;;5086236;28;20725;-63
2021/11/11 07:00:41;;;;;;;8.43;4.70;;;;;;;;;;5079616;28;20277;-62
2021/11/11 07:03:08;;;;;;;7.47;4.50;;;;;;;;;;5065736;28;20257;-62
2021/11/11 07:05:35;;;;;;;10.63;5.30;;;;;;;;;;5074767;28;20295;-62
2021/11/11 07:08:04;;;;;;;8.33;4.00;;;;;;;;;;5074173;28;20282;-62
2021/11/11 07:10:30;;;;;;;7.90;4.33;;;;;;;;;;5078758;28;20747;-62
2021/11/11 07:12:57;;;;;;;8.73;3.67;;;;;;;;;;5094670;28;20253;-62
2021/11/11 07:15:24;;;;;;;8.93;3.93;;;;;;;;;;5094323;28;20253;-62
2021/11/11 07:17:51;;;;;;;6.63;3.83;;;;;;;;;;5089417;28;20782;-62
2021/11/11 07:20:18;;;;;;;10.83;4.50;;;;;;;;;;5087070;28;20762;-62
2021/11/11 07:22:45;;;;;;;8.23;4.17;;;;;;;;;;5069250;28;20288;-62
2021/11/11 07:25:13;;;;;;;10.80;4.50;;;;;;;;;;5068846;28;20619;-62
2021/11/11 07:27:41;;;;;;;9.03;3.17;;;;;;;;;;5074097;28;20280;-62
2021/11/11 07:30:10;;;;;;;7.93;3.97;;;;;;;;;;5074588;28;20288;-62
2021/11/11 07:32:37;;;;;;;9.37;3.70;;;;;;;;;;5094310;28;20276;-62
2021/11/11 07:35:08;;;;;;;7.63;3.70;;;;;;;;;;5094414;28;20264;-62
2021/11/11 07:37:36;;;;;;;8.83;4.60;;;;;;;;;;5080378;28;20260;-62
2021/11/11 07:40:04;;;;;;;9.00;4.10;;;;;;;;;;5068638;28;20577;-62
2021/11/11 07:42:31;;;;;;;11.37;3.67;;;;;;;;;;5068710;28;20656;-62
2021/11/11 07:44:58;;;;;;;10.13;4.30;;;;;;;;;;5068741;28;20291;-62
2021/11/11 07:47:28;;;;;;;9.47;4.47;;;;;;;;;;5085999;28;20256;-62
2021/11/11 07:49:56;;;;;;;7.63;4.30;;;;;;;;;;5114364;28;20746;-62
2021/11/11 07:52:24;;;;;;;9.60;3.87;;;;;;;;;;5093843;28;20277;-62
2021/11/11 07:54:51;;;;;;;11.73;4.57;;;;;;;;;;5093982;28;20257;-62
2021/11/11 07:57:21;;;;;;;9.43;4.80;;;;;;;;;;5094018;28;20731;-62
2021/11/11 07:59:49;;;;;;;6.17;3.70;;;;;;;;;;5093522;28;20249;-62
2021/11/11 08:02:17;;;;;;;5.90;2.70;;;;;;;;;;5074848;28;20762;-62
2021/11/11 08:04:45;;;;;;;9.50;3.23;;;;;;;;;;5088867;28;20245;-62
2021/11/11 08:07:12;;;;;;;9.97;3.80;;;;;;;;;;5088259;28;20261;-62
2021/11/11 08:09:39;;;;;;;7.40;3.30;;;;;;;;;;5088394;28;20661;-62
2021/11/11 08:12:06;;;;;;;12.53;4.43;;;;;;;;;;5092402;28;20272;-62
2021/11/11 08:14:33;;;;;;;7.43;3.53;;;;;;;;;;5093365;28;20253;-62
2021/11/11 08:17:00;;;;;;;9.23;3.77;;;;;;;;;;5093423;28;20260;-62
2021/11/11 08:19:28;;;;;;;5.60;3.30;;;;;;;;;;5093740;28;20248;-62
2021/11/11 08:21:55;;;;;;;10.23;3.63;;;;;;;;;;5079198;28;20277;-62
2021/11/11 08:24:22;;;;;;;6.30;3.50;;;;;;;;;;5068038;28;20258;-62
2021/11/11 08:26:49;;;;;;;7.20;3.27;;;;;;;;;;5067716;28;20269;-62
2021/11/11 08:29:16;;;;;;;5.33;3.00;;;;;;;;;;5067986;28;20293;-62
2021/11/11 08:31:44;;;;;;;3.80;2.50;;;;;;;;;;5079139;28;20998;-62
2021/11/11 08:34:11;;;;;;;5.63;2.70;;;;;;;;;;5092104;28;20268;-62
2021/11/11 08:36:40;;;;;;;7.67;2.97;;;;;;;;;;5087678;28;20250;-62
2021/11/11 08:39:12;;;;;;;5.87;3.30;;;;;;;;;;5072480;28;20268;-62
2021/11/11 08:41:41;;;;;;;4.77;2.90;;;;;;;;;;5083705;28;20268;-62
2021/11/11 08:44:09;;;;;;;4.33;2.63;;;;;;;;;;5092940;28;20261;-62
2021/11/11 08:46:38;;;;;;;4.97;2.53;;;;;;;;;;5089979;28;20713;-62
2021/11/11 08:49:07;;;;;;;3.87;2.23;;;;;;;;;;5094593;28;20678;-62
2021/11/11 08:51:38;;;;;;;5.33;2.83;;;;;;;;;;5087174;28;20755;-62
2021/11/11 08:54:14;;;;;;;7.00;2.43;;;;;;;;;;5087061;28;20331;-62
2021/11/11 08:56:48;;;;;;;7.57;3.00;;;;;;;;;;5092640;28;20267;-62
2021/11/11 08:59:20;;;;;;;4.30;2.30;;;;;;;;;;5080520;28;20265;-62
2021/11/11 09:01:48;;;;;;;5.30;2.77;;;;;;;;;;5071922;28;20258;-63
2021/11/11 09:04:16;;;;;;;6.83;2.87;;;;;;;;;;5072304;28;20245;-62
2021/11/11 09:06:45;;;;;;;6.43;2.87;;;;;;;;;;5072385;28;20604;-62
2021/11/11 09:09:14;;;;;;;5.37;2.10;;;;;;;;;;5067071;28;20289;-62
2021/11/11 09:11:43;;;;;;;4.80;2.73;;;;;;;;;;5086190;28;20286;-62
2021/11/11 09:14:10;;;;;;;5.63;2.50;;;;;;;;;;5087039;28;20739;-62
2021/11/11 09:16:37;;;;;;;5.27;2.47;;;;;;;;;;5083846;28;20261;-62
2021/11/11 09:19:05;;;;;;;7.13;3.60;;;;;;;;;;5092167;28;20272;-62
2021/11/11 09:21:32;;;;;;;7.63;2.60;;;;;;;;;;5092457;28;20288;-62
2021/11/11 09:23:59;;;;;;;3.07;1.97;;;;;;;;;;5092190;28;20283;-62
2021/11/11 09:26:27;;;;;;;5.20;2.90;;;;;;;;;;5088476;28;20268;-62
2021/11/11 09:28:54;;;;;;;4.03;2.53;;;;;;;;;;5071877;28;20392;-62
2021/11/11 09:31:24;;;;;;;7.23;2.87;;;;;;;;;;5066500;28;20264;-62
2021/11/11 09:33:51;;;;;;;4.63;2.50;;;;;;;;;;5067030;28;20284;-62
2021/11/11 09:36:19;;;;;;;4.20;2.20;;;;;;;;;;5069166;28;20352;-62
2021/11/11 09:38:46;;;;;;;7.77;3.10;;;;;;;;;;5086054;28;20272;-62
2021/11/11 09:41:14;;;;;;;6.00;3.43;;;;;;;;;;5091763;28;20747;-62
2021/11/11 09:43:42;;;;;;;6.83;2.90;;;;;;;;;;5091625;28;20262;-62
2021/11/11 09:46:10;;;;;;;6.43;3.80;;;;;;;;;;5091973;28;20348;-62
2021/11/11 09:48:39;;;;;;;7.47;2.90;;;;;;;;;;5110617;28;20341;-62
2021/11/11 09:51:09;;;;;;;5.27;2.43;;;;;;;;;;5101328;28;20347;-62
2021/11/11 09:53:49;;;;;;;6.17;2.97;;;;;;;;;;5086875;28;20257;-62
2021/11/11 09:59:02;;;;;;;4.97;2.50;;;;;;;;;;5087086;28;20310;-62
2021/11/11 10:01:32;;;;;;;4.63;2.80;;;;;;;;;;5087226;28;20028;-62
2021/11/11 10:04:02;;;;;;;5.37;2.83;;;;;;;;;;5090359;28;20269;-60
2021/11/11 10:06:32;;;;;;;7.83;4.07;;;;;;;;;;5091905;28;20771;-62
2021/11/11 10:09:03;;;;;;;6.43;3.03;;;;;;;;;;5091375;28;20287;-62
2021/11/11 10:11:35;;;;;;;5.83;3.20;;;;;;;;;;5091665;28;20280;-62
2021/11/11 10:14:06;;;;;;;5.53;3.03;;;;;;;;;;5080727;28;20273;-62
2021/11/11 10:16:41;;;;;;;6.53;3.87;;;;;;;;;;5066271;28;20265;-62
2021/11/11 10:19:10;;;;;;;6.72;3.83;;;;;;;;;;5066502;28;20257;-62
2021/11/11 10:21:55;;;;;;;7.60;4.07;;;;;;;;;;5065984;28;20033;-62
2021/11/11 10:24:29;;;;;;;5.73;3.07;;;;;;;;;;5078545;28;20272;-62
2021/11/11 10:27:04;;;;;;;4.97;2.47;;;;;;;;;;5091270;28;20260;-62
2021/11/11 10:29:33;;;;;;;5.80;3.23;;;;;;;;;;5091244;28;20149;-62
2021/11/11 10:32:09;;;;;;;7.67;3.60;;;;;;;;;;5089751;28;20658;-62
2021/11/11 10:34:57;;;;;;;4.90;3.07;;;;;;;;;;5071184;28;20292;-62
2021/11/11 10:37:29;;;;;;;5.40;2.50;;;;;;;;;;5079154;28;20658;-62
2021/11/11 10:40:07;;;;;;;6.63;3.20;;;;;;;;;;5089953;28;20248;-62
2021/11/11 10:42:37;;;;;;;6.77;2.40;;;;;;;;;;5089221;28;20300;-62
2021/11/11 10:45:11;;;;;;;5.63;3.30;;;;;;;;;;5090009;28;20257;-63
2021/11/11 10:47:39;;;;;;;5.73;3.03;;;;;;;;;;5104348;28;20268;-62
2021/11/11 10:50:11;;;;;;;8.60;3.30;;;;;;;;;;5115472;28;20668;-62
2021/11/11 10:52:44;;;;;;;5.17;3.13;;;;;;;;;;5115747;28;20255;-61
2021/11/11 10:55:22;;;;;;;7.03;2.83;;;;;;;;;;5102290;28;20273;-62
2021/11/11 10:57:54;;;;;;;4.00;2.73;;;;;;;;;;5094598;28;20261;-62
2021/11/11 11:00:25;;;;;;;6.87;2.87;;;;;;;;;;5089987;28;20268;-62
2021/11/11 11:02:56;;;;;;;4.43;2.67;;;;;;;;;;5080840;28;20269;-62
2021/11/11 11:05:28;;;;;;;5.73;3.47;;;;;;;;;;5069522;28;21086;-62
2021/11/11 11:08:17;;;;;;;6.57;2.67;;;;;;;;;;5084160;28;20306;-62
2021/11/11 11:10:50;;;;;;;5.97;3.40;;;;;;;;;;5094890;28;20275;-61
2021/11/11 11:13:21;;;;;;;7.93;2.80;;;;;;;;;;5094731;28;20670;-62
2021/11/11 11:15:49;;;;;;;4.93;3.23;;;;;;;;;;5094679;28;20326;-62
2021/11/11 11:18:21;;;;;;;6.90;3.13;;;;;;;;;;5093024;28;20299;-62
2021/11/11 11:20:56;;;;;;;6.57;3.50;;;;;;;;;;5072695;28;20272;-62
2021/11/11 11:23:29;;;;;;;10.38;3.88;;;;;;;;;;5069060;28;20262;-61
2021/11/11 11:26:01;;;;;;;5.17;2.77;;;;;;;;;;5069040;28;20039;-62
2021/11/11 11:28:56;;;;;;;5.07;3.33;;;;;;;;;;5069097;28;20293;-62
2021/11/11 11:31:29;;;;;;;7.93;3.92;;;;;;;;;;5071656;28;20300;-62
2021/11/11 11:34:00;;;;;;;6.23;3.17;;;;;;;;;;5074045;28;20090;-62
2021/11/11 11:36:36;;;;;;;6.47;3.40;;;;;;;;;;5077916;28;20347;-61
2021/11/11 11:39:07;;;;;;;4.70;2.90;;;;;;;;;;5094402;28;20747;-61
2021/11/11 11:41:43;;;;;;;5.40;3.07;;;;;;;;;;5094257;28;20257;-61
2021/11/11 11:44:21;;;;;;;5.13;3.03;;;;;;;;;;5077477;28;20605;-62
2021/11/11 11:47:10;;;;;;;5.10;2.80;;;;;;;;;;5075637;28;20256;-62
2021/11/11 11:49:39;;;;;;;4.73;2.87;;;;;;;;;;5108173;28;20296;-62
2021/11/11 11:52:10;;;;;;;5.77;3.20;;;;;;;;;;5109277;28;20267;-61
2021/11/11 11:57:14;;;;;;;4.80;3.00;;;;;;;;;;5094411;28;20318;-62
2021/11/11 11:59:45;;;;;;;6.13;3.40;;;;;;;;;;5093654;28;20284;-62
2021/11/11 12:02:22;;;;;;;6.03;3.40;;;;;;;;;;5090379;28;20328;-62
2021/11/11 12:05:42;;;;;;;14.60;3.70;;;;;;;;;;5072935;28;20779;-62
2021/11/11 12:40:39;;;;;;;7.37;4.40;;;;;;;;;;5073133;28;20268;-61
2021/11/11 12:43:17;;;;;;;9.87;3.97;;;;;;;;;;5073796;28;20258;-61
2021/11/11 12:45:45;;;;;;;6.23;3.60;;;;;;;;;;5072462;28;20285;-61
2021/11/11 12:48:14;;;;;;;9.33;4.03;;;;;;;;;;5102600;28;20256;-61
2021/11/11 12:51:00;;;;;;;9.07;4.77;;;;;;;;;;5109459;28;20267;-62
2021/11/11 12:53:32;;;;;;;7.23;3.60;;;;;;;;;;5108214;28;20259;-62
2021/11/11 12:56:16;;;;;;;8.10;4.10;;;;;;;;;;5092779;28;20308;-62
2021/11/11 12:58:58;;;;;;;13.53;4.80;;;;;;;;;;5087620;28;20288;-62
2021/11/11 13:01:37;;;;;;;7.97;4.30;;;;;;;;;;5092784;28;20257;-62
2021/11/11 13:04:06;;;;;;;13.90;4.57;;;;;;;;;;5073081;28;20260;-62
2021/11/11 13:06:36;;;;;;;9.90;3.57;;;;;;;;;;5072214;28;20624;-62
2021/11/11 13:09:08;;;;;;;7.07;3.90;;;;;;;;;;5073527;28;20293;-62
2021/11/11 13:11:37;;;;;;;9.03;4.13;;;;;;;;;;5071681;28;20300;-62
2021/11/11 13:14:13;;;;;;;9.57;4.53;;;;;;;;;;5067080;28;20283;-62
2021/11/11 13:16:41;;;;;;;13.50;4.30;;;;;;;;;;5067129;28;20311;-62
2021/11/11 13:19:08;;;;;;;10.30;4.97;;;;;;;;;;5072521;28;20318;-62
2021/11/11 13:24:41;;;;;;;18.50;5.47;;;;;;;;;;5092204;28;20743;-62
2021/11/11 13:27:51;;;;;;;6.07;4.07;;;;;;;;;;5092569;28;20288;-62
2021/11/11 15:14:26;;;;;;;7.00;4.00;;;;;;;;;;5071058;28;20137;-63
2021/11/11 15:16:52;;;;;;;9.67;4.67;;;;;;;;;;5075037;28;20032;-63
2021/11/11 16:19:35;;;;;;;8.50;5.30;;;;;;;;;;5090386;28;20086;-64
2021/11/11 16:21:00;;;;;;;7.07;3.47;;;;;;;;;;5091830;28;20043;-64
2021/11/11 16:26:17;;;;;;;5.63;3.63;;;;;;;;;;5093443;28;20395;-64
2021/11/11 16:28:51;;;;;;;8.40;4.40;;;;;;;;;;5077265;28;20024;-64
2021/11/11 16:31:24;;;;;;;6.10;3.13;;;;;;;;;;5073384;28;20055;-64
2021/11/11 16:33:57;;;;;;;12.70;3.70;;;;;;;;;;5068033;28;20066;-64
2021/11/11 16:36:33;;;;;;;5.30;2.97;;;;;;;;;;5071048;28;20012;-64
2021/11/11 16:39:03;;;;;;;6.80;2.70;;;;;;;;;;5087528;28;20030;-64
2021/11/11 16:41:34;;;;;;;4.60;2.30;;;;;;;;;;5087235;28;20035;-64
2021/11/11 16:44:06;;;;;;;5.20;2.30;;;;;;;;;;5093370;28;20024;-65
2021/11/11 16:46:36;;;;;;;3.20;1.73;;;;;;;;;;5093328;28;20081;-64
2021/11/11 16:49:06;;;;;;;4.20;2.27;;;;;;;;;;5111677;28;20054;-65
2021/11/11 16:51:34;;;;;;;6.67;2.63;;;;;;;;;;5112761;28;20112;-65
2021/11/11 16:54:04;;;;;;;4.90;3.03;;;;;;;;;;5091647;28;20020;-64
2021/11/11 16:56:34;;;;;;;4.87;2.80;;;;;;;;;;5087442;28;20024;-64
2021/11/11 16:59:03;;;;;;;5.77;2.60;;;;;;;;;;5087424;28;20481;-64
2021/11/11 17:01:30;;;;;;;4.00;2.20;;;;;;;;;;5087247;28;20039;-64
2021/11/11 17:03:58;;;;;;;7.87;2.83;;;;;;;;;;5070317;28;20063;-64
2021/11/11 17:06:25;;;;;;;5.90;2.70;;;;;;;;;;5091738;28;20148;-64
2021/11/11 17:08:51;;;;;;;5.30;2.37;;;;;;;;;;5092296;28;20016;-64
2021/11/11 17:11:19;;;;;;;4.93;2.87;;;;;;;;;;5092370;28;20024;-64
2021/11/11 17:13:49;;;;;;;5.73;3.10;;;;;;;;;;5092310;28;20036;-64
2021/11/11 17:16:24;;;;;;;5.93;2.60;;;;;;;;;;5089744;28;20356;-65
2021/11/11 17:18:55;;;;;;;4.73;2.70;;;;;;;;;;5067015;28;20123;-65
2021/11/11 17:21:24;;;;;;;6.17;2.70;;;;;;;;;;5066875;28;20546;-65
2021/11/11 17:23:59;;;;;;;5.20;2.83;;;;;;;;;;5066784;28;20436;-64
2021/11/11 17:28:58;;;;;;;5.90;2.30;;;;;;;;;;5075035;28;20445;-64
2021/11/11 17:31:27;;;;;;;4.10;2.10;;;;;;;;;;5092604;28;20016;-64
2021/11/11 17:33:57;;;;;;;4.37;2.73;;;;;;;;;;5092352;28;20085;-64
2021/11/11 17:36:25;;;;;;;3.40;2.13;;;;;;;;;;5088689;28;20021;-64
2021/11/11 17:38:56;;;;;;;12.03;2.47;;;;;;;;;;5070792;28;20035;-64
2021/11/11 17:41:25;;;;;;;6.97;2.23;;;;;;;;;;5084978;28;20035;-65
2021/11/11 17:43:55;;;;;;;4.97;2.80;;;;;;;;;;5086994;28;20050;-65
2021/11/11 17:46:30;;;;;;;7.90;2.57;;;;;;;;;;5086918;28;20020;-64
2021/11/11 17:49:00;;;;;;;3.60;1.80;;;;;;;;;;5067514;28;20048;-64
2021/11/11 17:51:36;;;;;;;5.13;2.20;;;;;;;;;;5089478;28;20042;-65
2021/11/11 17:54:15;;;;;;;6.47;2.73;;;;;;;;;;5091521;28;20478;-65
2021/11/11 17:56:47;;;;;;;3.20;1.97;;;;;;;;;;5091979;28;20024;-64
2021/11/11 17:59:17;;;;;;;3.53;1.90;;;;;;;;;;5092179;28;20054;-64
2021/11/11 18:01:44;;;;;;;4.17;2.33;;;;;;;;;;5085691;28;20033;-64
2021/11/11 18:04:11;;;;;;;5.53;2.43;;;;;;;;;;5086464;28;20431;-65
2021/11/11 18:06:50;;;;;;;3.93;1.83;;;;;;;;;;5086153;28;20032;-65
2021/11/11 18:09:25;;;;;;;7.43;2.33;;;;;;;;;;5086733;28;20066;-64
2021/11/11 18:12:00;;;;;;;4.47;2.57;;;;;;;;;;5088836;28;20035;-65
2021/11/11 18:14:27;;;;;;;;;;;;;;;;;;5072035;28;20547;-65
2021/11/11 18:16:55;;;;;;;3.83;2.43;;;;;;;;;;5072475;28;19904;-65
2021/11/11 18:19:22;;;;;;;6.97;2.00;;;;;;;;;;5091728;28;20081;-65
2021/11/11 18:21:52;;;;;;;9.03;2.97;;;;;;;;;;5091860;28;20020;-65
2021/11/11 18:24:24;;;;;;;3.70;2.20;;;;;;;;;;5088743;28;20070;-65
2021/11/11 18:26:54;;;;;;;8.50;2.63;;;;;;;;;;5086207;28;20063;-65
2021/11/11 18:29:31;;;;;;;4.00;2.27;;;;;;;;;;5066270;28;20423;-65
2021/11/11 18:32:06;;;;;;;3.63;2.08;;;;;;;;;;5066207;28;20032;-65
2021/11/11 18:34:36;;;;;;;3.70;2.43;;;;;;;;;;5069244;28;20045;-65
2021/11/11 18:37:07;;;;;;;3.20;2.27;;;;;;;;;;5080399;28;20043;-65
2021/11/11 18:39:35;;;;;;;7.75;2.38;;;;;;;;;;5090847;28;20084;-65
2021/11/11 18:42:03;;;;;;;3.90;2.30;;;;;;;;;;5091329;28;20388;-65
2021/11/11 18:44:36;;;;;;;3.60;2.10;;;;;;;;;;5091640;28;20028;-65
2021/11/11 18:47:15;;;;;;;4.68;2.90;;;;;;;;;;5092576;28;20019;-65
2021/11/11 18:49:42;;;;;;;5.22;2.33;;;;;;;;;;5106403;28;20032;-65